sensor_id;sensor_type;location;lat;lon;timestamp;pressure;altitude;pressure_sealevel;temperature;humidity
70011;BME280;59543;37.950;-122.338;2023-01-10T00:01:42;100743.97;;;14.77;70.13
70011;BME280;59543;37.950;-122.338;2023-01-10T00:04:08;100740.38;;;14.77;70.72
70011;BME280;59543;37.950;-122.338;2023-01-10T00:06:35;100739.56;;;14.76;70.24
70011;BME280;59543;37.950;-122.338;2023-01-10T00:09:01;100743.91;;;14.85;69.79
70011;BME280;59543;37.950;-122.338;2023-01-10T00:11:27;100751.63;;;14.66;70.12
70011;BME280;59543;37.950;-122.338;2023-01-10T00:14:12;100746.75;;;14.53;69.59
70011;BME280;59543;37.950;-122.338;2023-01-10T00:16:39;100735.56;;;14.56;69.44
70011;BME280;59543;37.950;-122.338;2023-01-10T00:19:08;100725.41;;;14.58;70.25
70011;BME280;59543;37.950;-122.338;2023-01-10T00:21:36;100732.88;;;14.48;71.02
70011;BME280;59543;37.950;-122.338;2023-01-10T00:24:02;100732.22;;;14.54;71.32
70011;BME280;59543;37.950;-122.338;2023-01-10T00:26:45;100734.72;;;14.55;70.73
70011;BME280;59543;37.950;-122.338;2023-01-10T00:29:17;100748.47;;;14.54;71.60
70011;BME280;59543;37.950;-122.338;2023-01-10T00:31:43;100733.88;;;14.47;72.05
70011;BME280;59543;37.950;-122.338;2023-01-10T00:34:10;100727.34;;;14.41;72.59
70011;BME280;59543;37.950;-122.338;2023-01-10T00:36:36;100727.66;;;14.38;72.24
70011;BME280;59543;37.950;-122.338;2023-01-10T00:39:03;100727.34;;;14.33;72.25
70011;BME280;59543;37.950;-122.338;2023-01-10T00:41:29;100728.16;;;14.41;72.72
70011;BME280;59543;37.950;-122.338;2023-01-10T00:44:13;100735.78;;;14.38;73.84
70011;BME280;59543;37.950;-122.338;2023-01-10T00:46:40;100735.28;;;14.34;73.87
70011;BME280;59543;37.950;-122.338;2023-01-10T00:49:06;100731.78;;;14.17;73.87
70011;BME280;59543;37.950;-122.338;2023-01-10T00:51:36;100736.53;;;14.07;74.33
70011;BME280;59543;37.950;-122.338;2023-01-10T00:54:03;100740.75;;;14.02;75.34
70011;BME280;59543;37.950;-122.338;2023-01-10T00:56:29;100734.69;;;14.00;75.17
70011;BME280;59543;37.950;-122.338;2023-01-10T00:58:56;100737.25;;;13.93;75.63
70011;BME280;59543;37.950;-122.338;2023-01-10T01:01:22;100729.47;;;13.82;76.25
70011;BME280;59543;37.950;-122.338;2023-01-10T01:03:48;100708.69;;;13.74;76.74
70011;BME280;59543;37.950;-122.338;2023-01-10T01:06:14;100704.16;;;13.66;77.24
70011;BME280;59543;37.950;-122.338;2023-01-10T01:08:40;100708.72;;;13.66;76.99
70011;BME280;59543;37.950;-122.338;2023-01-10T01:11:07;100700.94;;;13.63;76.89
70011;BME280;59543;37.950;-122.338;2023-01-10T01:13:33;100704.31;;;13.57;77.73
70011;BME280;59543;37.950;-122.338;2023-01-10T01:16:01;100698.25;;;13.55;77.82
70011;BME280;59543;37.950;-122.338;2023-01-10T01:18:27;100699.59;;;13.42;78.48
70011;BME280;59543;37.950;-122.338;2023-01-10T01:20:55;100692.81;;;13.38;78.43
70011;BME280;59543;37.950;-122.338;2023-01-10T01:23:22;100693.16;;;13.35;78.70
70011;BME280;59543;37.950;-122.338;2023-01-10T01:25:56;100690.13;;;13.30;78.61
70011;BME280;59543;37.950;-122.338;2023-01-10T01:28:22;100691.63;;;13.33;78.54
70011;BME280;59543;37.950;-122.338;2023-01-10T01:30:49;100691.63;;;13.24;78.67
70011;BME280;59543;37.950;-122.338;2023-01-10T01:33:16;100688.06;;;13.16;78.85
70011;BME280;59543;37.950;-122.338;2023-01-10T01:35:45;100676.56;;;13.05;79.15
70011;BME280;59543;37.950;-122.338;2023-01-10T01:38:12;100692.59;;;12.91;79.90
70011;BME280;59543;37.950;-122.338;2023-01-10T01:40:39;100684.28;;;12.84;80.05
70011;BME280;59543;37.950;-122.338;2023-01-10T01:46:36;100646.06;;;12.54;82.05
70011;BME280;59543;37.950;-122.338;2023-01-10T01:49:08;100633.94;;;12.50;82.01
70011;BME280;59543;37.950;-122.338;2023-01-10T01:51:37;100636.81;;;12.49;81.74
70011;BME280;59543;37.950;-122.338;2023-01-10T01:54:06;100645.91;;;12.48;81.71
70011;BME280;59543;37.950;-122.338;2023-01-10T01:56:40;100640.66;;;12.38;81.84
70011;BME280;59543;37.950;-122.338;2023-01-10T01:59:14;100635.38;;;12.28;82.26
70011;BME280;59543;37.950;-122.338;2023-01-10T02:01:46;100620.69;;;12.23;82.10
70011;BME280;59543;37.950;-122.338;2023-01-10T02:04:27;100624.19;;;12.15;81.96
70011;BME280;59543;37.950;-122.338;2023-01-10T02:06:56;100623.63;;;12.03;82.40
70011;BME280;59543;37.950;-122.338;2023-01-10T02:09:42;100635.94;;;11.98;82.47
70011;BME280;59543;37.950;-122.338;2023-01-10T02:12:10;100631.19;;;11.92;82.19
70011;BME280;59543;37.950;-122.338;2023-01-10T02:14:39;100622.25;;;11.73;83.01
70011;BME280;59543;37.950;-122.338;2023-01-10T02:17:10;100623.00;;;11.83;82.39
70011;BME280;59543;37.950;-122.338;2023-01-10T02:19:57;100623.78;;;11.76;82.20
70011;BME280;59543;37.950;-122.338;2023-01-10T02:28:23;100634.78;;;10.76;87.53
70011;BME280;59543;37.950;-122.338;2023-01-10T02:34:22;100626.19;;;10.73;87.67
70011;BME280;59543;37.950;-122.338;2023-01-10T02:45:16;100609.94;;;10.29;89.46
70011;BME280;59543;37.950;-122.338;2023-01-10T02:47:44;100599.88;;;10.21;90.37
70011;BME280;59543;37.950;-122.338;2023-01-10T02:52:59;100588.13;;;9.95;92.44
70011;BME280;59543;37.950;-122.338;2023-01-10T03:03:50;100592.91;;;10.01;91.18
70011;BME280;59543;37.950;-122.338;2023-01-10T03:06:43;100587.72;;;9.99;90.27
70011;BME280;59543;37.950;-122.338;2023-01-10T03:09:33;100593.28;;;9.51;93.38
70011;BME280;59543;37.950;-122.338;2023-01-10T03:12:20;100596.81;;;9.32;94.87
70011;BME280;59543;37.950;-122.338;2023-01-10T03:14:50;100590.78;;;9.30;95.36
70011;BME280;59543;37.950;-122.338;2023-01-10T03:17:19;100597.69;;;9.23;95.37
70011;BME280;59543;37.950;-122.338;2023-01-10T03:19:50;100598.81;;;9.20;95.60
70011;BME280;59543;37.950;-122.338;2023-01-10T03:22:17;100604.94;;;9.12;96.26
70011;BME280;59543;37.950;-122.338;2023-01-10T03:24:52;100594.75;;;9.16;95.92
70011;BME280;59543;37.950;-122.338;2023-01-10T03:30:17;100563.41;;;9.07;96.08
70011;BME280;59543;37.950;-122.338;2023-01-10T03:32:40;100562.44;;;8.98;96.47
70011;BME280;59543;37.950;-122.338;2023-01-10T03:35:08;100561.44;;;8.99;96.38
70011;BME280;59543;37.950;-122.338;2023-01-10T03:40:19;100542.94;;;9.06;95.47
70011;BME280;59543;37.950;-122.338;2023-01-10T03:43:11;100542.66;;;9.09;94.79
70011;BME280;59543;37.950;-122.338;2023-01-10T03:46:20;100539.13;;;8.99;94.70
70011;BME280;59543;37.950;-122.338;2023-01-10T03:48:49;100529.69;;;8.95;94.74
70011;BME280;59543;37.950;-122.338;2023-01-10T03:51:18;100524.47;;;8.83;94.51
70011;BME280;59543;37.950;-122.338;2023-01-10T03:53:44;100525.72;;;8.89;94.53
70011;BME280;59543;37.950;-122.338;2023-01-10T03:56:14;100523.75;;;8.81;93.21
70011;BME280;59543;37.950;-122.338;2023-01-10T03:58:40;100525.19;;;8.76;93.06
70011;BME280;59543;37.950;-122.338;2023-01-10T04:01:06;100530.13;;;8.70;93.13
70011;BME280;59543;37.950;-122.338;2023-01-10T04:03:33;100531.41;;;8.66;93.00
70011;BME280;59543;37.950;-122.338;2023-01-10T04:05:59;100525.63;;;8.61;93.21
70011;BME280;59543;37.950;-122.338;2023-01-10T04:08:25;100516.16;;;8.67;92.99
70011;BME280;59543;37.950;-122.338;2023-01-10T04:10:52;100510.06;;;8.75;92.45
70011;BME280;59543;37.950;-122.338;2023-01-10T04:13:18;100515.88;;;8.80;91.86
70011;BME280;59543;37.950;-122.338;2023-01-10T04:15:44;100515.88;;;8.70;91.86
70011;BME280;59543;37.950;-122.338;2023-01-10T04:18:10;100521.22;;;8.60;92.04
70011;BME280;59543;37.950;-122.338;2023-01-10T04:20:37;100525.75;;;8.79;91.30
70011;BME280;59543;37.950;-122.338;2023-01-10T04:23:03;100546.38;;;8.79;90.37
70011;BME280;59543;37.950;-122.338;2023-01-10T04:25:30;100557.66;;;8.82;89.56
70011;BME280;59543;37.950;-122.338;2023-01-10T04:27:56;100572.34;;;8.88;89.41
70011;BME280;59543;37.950;-122.338;2023-01-10T04:30:22;100581.78;;;8.82;89.47
70011;BME280;59543;37.950;-122.338;2023-01-10T04:32:48;100582.19;;;8.78;89.39
70011;BME280;59543;37.950;-122.338;2023-01-10T04:35:15;100573.19;;;8.79;89.50
70011;BME280;59543;37.950;-122.338;2023-01-10T04:37:42;100582.63;;;8.73;88.98
70011;BME280;59543;37.950;-122.338;2023-01-10T04:40:08;100588.97;;;8.72;89.03
70011;BME280;59543;37.950;-122.338;2023-01-10T04:42:35;100598.28;;;8.58;89.67
70011;BME280;59543;37.950;-122.338;2023-01-10T04:45:01;100583.19;;;8.57;89.70
70011;BME280;59543;37.950;-122.338;2023-01-10T04:47:27;100582.41;;;8.36;91.03
70011;BME280;59543;37.950;-122.338;2023-01-10T04:49:54;100573.81;;;8.32;91.22
70011;BME280;59543;37.950;-122.338;2023-01-10T04:52:20;100564.75;;;8.14;91.58
70011;BME280;59543;37.950;-122.338;2023-01-10T04:54:46;100549.19;;;7.88;93.53
70011;BME280;59543;37.950;-122.338;2023-01-10T04:57:15;100538.22;;;7.91;94.13
70011;BME280;59543;37.950;-122.338;2023-01-10T04:59:42;100534.63;;;7.81;94.30
70011;BME280;59543;37.950;-122.338;2023-01-10T05:02:08;100547.03;;;7.82;94.70
70011;BME280;59543;37.950;-122.338;2023-01-10T05:04:34;100562.84;;;7.85;94.21
70011;BME280;59543;37.950;-122.338;2023-01-10T05:07:00;100552.84;;;7.87;93.86
70011;BME280;59543;37.950;-122.338;2023-01-10T05:09:27;100549.97;;;7.79;94.18
70011;BME280;59543;37.950;-122.338;2023-01-10T05:11:53;100551.81;;;7.78;94.29
70011;BME280;59543;37.950;-122.338;2023-01-10T05:14:19;100560.53;;;7.71;95.28
70011;BME280;59543;37.950;-122.338;2023-01-10T05:16:46;100561.78;;;7.67;95.17
70011;BME280;59543;37.950;-122.338;2023-01-10T05:19:12;100554.28;;;7.61;95.22
70011;BME280;59543;37.950;-122.338;2023-01-10T05:21:39;100549.25;;;7.67;95.34
70011;BME280;59543;37.950;-122.338;2023-01-10T05:24:05;100556.41;;;7.67;94.98
70011;BME280;59543;37.950;-122.338;2023-01-10T05:26:31;100564.91;;;7.72;95.16
70011;BME280;59543;37.950;-122.338;2023-01-10T05:28:58;100569.22;;;7.63;95.26
70011;BME280;59543;37.950;-122.338;2023-01-10T05:31:24;100581.38;;;7.67;94.87
70011;BME280;59543;37.950;-122.338;2023-01-10T05:33:51;100585.22;;;7.74;94.71
70011;BME280;59543;37.950;-122.338;2023-01-10T05:36:18;100567.28;;;7.65;94.58
70011;BME280;59543;37.950;-122.338;2023-01-10T05:38:44;100572.41;;;7.47;96.06
70011;BME280;59543;37.950;-122.338;2023-01-10T05:41:11;100583.06;;;7.38;96.77
70011;BME280;59543;37.950;-122.338;2023-01-10T05:43:37;100577.50;;;7.50;95.81
70011;BME280;59543;37.950;-122.338;2023-01-10T05:46:04;100573.91;;;7.61;95.01
70011;BME280;59543;37.950;-122.338;2023-01-10T05:48:30;100575.69;;;7.61;94.99
70011;BME280;59543;37.950;-122.338;2023-01-10T05:50:56;100581.94;;;7.61;94.92
70011;BME280;59543;37.950;-122.338;2023-01-10T05:53:22;100586.13;;;7.64;94.52
70011;BME280;59543;37.950;-122.338;2023-01-10T05:55:56;100584.59;;;7.61;94.88
70011;BME280;59543;37.950;-122.338;2023-01-10T05:58:23;100583.47;;;7.64;94.59
70011;BME280;59543;37.950;-122.338;2023-01-10T06:00:49;100580.94;;;7.62;94.22
70011;BME280;59543;37.950;-122.338;2023-01-10T06:03:16;100570.53;;;7.69;94.24
70011;BME280;59543;37.950;-122.338;2023-01-10T06:05:43;100566.72;;;7.62;93.87
70011;BME280;59543;37.950;-122.338;2023-01-10T06:08:09;100575.16;;;7.67;94.07
70011;BME280;59543;37.950;-122.338;2023-01-10T06:10:35;100565.94;;;7.50;94.83
70011;BME280;59543;37.950;-122.338;2023-01-10T06:13:02;100563.00;;;7.53;94.59
70011;BME280;59543;37.950;-122.338;2023-01-10T06:15:32;100557.22;;;7.57;94.18
70011;BME280;59543;37.950;-122.338;2023-01-10T06:17:58;100568.53;;;7.61;93.72
70011;BME280;59543;37.950;-122.338;2023-01-10T06:20:25;100570.94;;;7.64;93.33
70011;BME280;59543;37.950;-122.338;2023-01-10T06:22:51;100550.09;;;7.68;93.16
70011;BME280;59543;37.950;-122.338;2023-01-10T06:25:17;100542.94;;;7.78;92.88
70011;BME280;59543;37.950;-122.338;2023-01-10T06:27:43;100546.41;;;8.09;91.69
70011;BME280;59543;37.950;-122.338;2023-01-10T06:30:11;100533.44;;;8.14;90.84
70011;BME280;59543;37.950;-122.338;2023-01-10T06:32:38;100534.09;;;7.97;91.76
70011;BME280;59543;37.950;-122.338;2023-01-10T06:35:05;100543.03;;;8.17;90.72
70011;BME280;59543;37.950;-122.338;2023-01-10T06:37:32;100541.03;;;7.99;91.39
70011;BME280;59543;37.950;-122.338;2023-01-10T06:39:58;100526.47;;;7.83;91.93
70011;BME280;59543;37.950;-122.338;2023-01-10T06:42:24;100521.53;;;7.78;92.68
70011;BME280;59543;37.950;-122.338;2023-01-10T06:44:50;100508.69;;;7.72;92.55
70011;BME280;59543;37.950;-122.338;2023-01-10T06:47:17;100496.97;;;7.73;93.21
70011;BME280;59543;37.950;-122.338;2023-01-10T06:49:43;100486.72;;;7.78;93.41
70011;BME280;59543;37.950;-122.338;2023-01-10T06:52:09;100486.88;;;7.86;93.48
70011;BME280;59543;37.950;-122.338;2023-01-10T06:54:35;100479.69;;;7.87;94.12
70011;BME280;59543;37.950;-122.338;2023-01-10T06:57:02;100475.19;;;7.97;94.34
70011;BME280;59543;37.950;-122.338;2023-01-10T06:59:29;100471.94;;;8.03;94.98
70011;BME280;59543;37.950;-122.338;2023-01-10T07:01:55;100452.66;;;8.19;95.71
70011;BME280;59543;37.950;-122.338;2023-01-10T07:04:21;100449.25;;;8.27;95.77
70011;BME280;59543;37.950;-122.338;2023-01-10T07:06:47;100421.47;;;8.37;97.99
70011;BME280;59543;37.950;-122.338;2023-01-10T07:09:14;100432.34;;;8.65;98.23
70011;BME280;59543;37.950;-122.338;2023-01-10T07:11:40;100428.38;;;8.79;98.45
70011;BME280;59543;37.950;-122.338;2023-01-10T07:14:06;100421.38;;;8.96;100.00
70011;BME280;59543;37.950;-122.338;2023-01-10T07:16:34;100426.28;;;9.10;100.00
70011;BME280;59543;37.950;-122.338;2023-01-10T07:19:00;100428.31;;;9.26;100.00
70011;BME280;59543;37.950;-122.338;2023-01-10T07:21:27;100428.91;;;9.47;99.42
70011;BME280;59543;37.950;-122.338;2023-01-10T07:23:53;100425.84;;;9.70;98.37
70011;BME280;59543;37.950;-122.338;2023-01-10T07:26:20;100411.19;;;9.82;96.21
70011;BME280;59543;37.950;-122.338;2023-01-10T07:28:49;100399.97;;;9.87;95.61
70011;BME280;59543;37.950;-122.338;2023-01-10T07:31:17;100396.41;;;9.96;93.95
70011;BME280;59543;37.950;-122.338;2023-01-10T07:33:44;100391.25;;;10.02;93.53
70011;BME280;59543;37.950;-122.338;2023-01-10T07:36:11;100376.66;;;10.05;93.02
70011;BME280;59543;37.950;-122.338;2023-01-10T07:38:37;100374.22;;;10.20;93.00
70011;BME280;59543;37.950;-122.338;2023-01-10T07:41:04;100363.19;;;10.23;92.78
70011;BME280;59543;37.950;-122.338;2023-01-10T07:43:31;100363.03;;;10.24;92.81
70011;BME280;59543;37.950;-122.338;2023-01-10T07:46:01;100357.97;;;10.21;92.75
70011;BME280;59543;37.950;-122.338;2023-01-10T07:48:28;100359.63;;;10.22;92.65
70011;BME280;59543;37.950;-122.338;2023-01-10T07:50:59;100364.66;;;10.17;93.12
70011;BME280;59543;37.950;-122.338;2023-01-10T07:53:27;100377.63;;;10.22;93.14
70011;BME280;59543;37.950;-122.338;2023-01-10T07:55:57;100382.56;;;10.26;93.18
70011;BME280;59543;37.950;-122.338;2023-01-10T07:58:24;100378.03;;;10.27;93.36
70011;BME280;59543;37.950;-122.338;2023-01-10T08:00:50;100366.28;;;10.28;93.47
70011;BME280;59543;37.950;-122.338;2023-01-10T08:03:16;100351.69;;;10.30;93.33
70011;BME280;59543;37.950;-122.338;2023-01-10T08:05:43;100339.25;;;10.29;93.36
70011;BME280;59543;37.950;-122.338;2023-01-10T08:08:10;100348.69;;;10.34;93.21
70011;BME280;59543;37.950;-122.338;2023-01-10T08:10:38;100343.88;;;10.45;93.34
70011;BME280;59543;37.950;-122.338;2023-01-10T08:13:05;100331.13;;;10.47;93.23
70011;BME280;59543;37.950;-122.338;2023-01-10T08:15:31;100329.16;;;10.58;93.12
70011;BME280;59543;37.950;-122.338;2023-01-10T08:18:01;100326.97;;;10.53;93.43
70011;BME280;59543;37.950;-122.338;2023-01-10T08:20:28;100332.19;;;10.55;93.33
70011;BME280;59543;37.950;-122.338;2023-01-10T08:22:58;100309.81;;;10.54;93.84
70011;BME280;59543;37.950;-122.338;2023-01-10T08:25:25;100308.53;;;10.66;93.40
70011;BME280;59543;37.950;-122.338;2023-01-10T08:27:52;100309.69;;;10.64;93.80
70011;BME280;59543;37.950;-122.338;2023-01-10T08:30:18;100305.69;;;10.68;93.54
70011;BME280;59543;37.950;-122.338;2023-01-10T08:32:44;100310.91;;;10.69;93.76
70011;BME280;59543;37.950;-122.338;2023-01-10T08:35:11;100288.94;;;10.74;94.04
70011;BME280;59543;37.950;-122.338;2023-01-10T08:37:37;100283.66;;;10.64;94.68
70011;BME280;59543;37.950;-122.338;2023-01-10T08:40:04;100271.91;;;10.65;94.38
70011;BME280;59543;37.950;-122.338;2023-01-10T08:42:30;100258.13;;;10.68;93.40
70011;BME280;59543;37.950;-122.338;2023-01-10T08:44:56;100232.22;;;10.67;92.86
70011;BME280;59543;37.950;-122.338;2023-01-10T08:47:23;100230.72;;;10.73;92.69
70011;BME280;59543;37.950;-122.338;2023-01-10T08:49:49;100225.84;;;10.68;92.27
70011;BME280;59543;37.950;-122.338;2023-01-10T08:52:15;100218.13;;;10.73;91.32
70011;BME280;59543;37.950;-122.338;2023-01-10T08:54:42;100192.38;;;10.71;91.88
70011;BME280;59543;37.950;-122.338;2023-01-10T08:57:08;100179.25;;;10.60;92.33
70011;BME280;59543;37.950;-122.338;2023-01-10T08:59:35;100167.38;;;10.87;91.20
70011;BME280;59543;37.950;-122.338;2023-01-10T09:02:01;100163.38;;;10.99;92.23
70011;BME280;59543;37.950;-122.338;2023-01-10T09:04:29;100172.97;;;11.18;92.43
70011;BME280;59543;37.950;-122.338;2023-01-10T09:06:56;100194.69;;;11.33;92.94
70011;BME280;59543;37.950;-122.338;2023-01-10T09:09:22;100165.41;;;11.46;93.23
70011;BME280;59543;37.950;-122.338;2023-01-10T09:11:48;100187.97;;;11.61;92.39
70011;BME280;59543;37.950;-122.338;2023-01-10T09:14:15;100174.47;;;11.78;91.02
70011;BME280;59543;37.950;-122.338;2023-01-10T09:16:41;100157.81;;;11.82;91.15
70011;BME280;59543;37.950;-122.338;2023-01-10T09:19:07;100136.22;;;11.99;89.88
70011;BME280;59543;37.950;-122.338;2023-01-10T09:21:33;100132.16;;;12.03;89.37
70011;BME280;59543;37.950;-122.338;2023-01-10T09:24:00;100103.31;;;12.11;89.08
70011;BME280;59543;37.950;-122.338;2023-01-10T09:26:26;100095.00;;;12.21;88.50
70011;BME280;59543;37.950;-122.338;2023-01-10T09:28:52;100083.84;;;12.32;87.39
70011;BME280;59543;37.950;-122.338;2023-01-10T09:31:18;100050.13;;;12.37;87.71
70011;BME280;59543;37.950;-122.338;2023-01-10T09:33:45;100042.28;;;12.50;86.03
70011;BME280;59543;37.950;-122.338;2023-01-10T09:36:13;100030.94;;;12.54;86.53
70011;BME280;59543;37.950;-122.338;2023-01-10T09:38:40;99996.00;;;12.61;87.50
70011;BME280;59543;37.950;-122.338;2023-01-10T09:44:36;99973.09;;;12.57;88.95
70011;BME280;59543;37.950;-122.338;2023-01-10T09:52:46;100004.63;;;12.56;90.63
70011;BME280;59543;37.950;-122.338;2023-01-10T09:55:36;100024.28;;;12.42;92.83
70011;BME280;59543;37.950;-122.338;2023-01-10T09:58:08;100028.97;;;12.48;93.92
70011;BME280;59543;37.950;-122.338;2023-01-10T10:00:48;100033.34;;;12.49;94.90
70011;BME280;59543;37.950;-122.338;2023-01-10T10:03:29;100029.50;;;12.44;95.55
70011;BME280;59543;37.950;-122.338;2023-01-10T10:05:57;100040.19;;;12.37;95.83
70011;BME280;59543;37.950;-122.338;2023-01-10T10:08:24;100058.50;;;12.42;95.74
70011;BME280;59543;37.950;-122.338;2023-01-10T10:13:43;100227.28;;;12.36;97.92
70011;BME280;59543;37.950;-122.338;2023-01-10T10:22:09;100149.47;;;10.19;87.45
70011;BME280;59543;37.950;-122.338;2023-01-10T10:33:12;100108.69;;;10.23;90.75
70011;BME280;59543;37.950;-122.338;2023-01-10T10:35:48;100101.06;;;10.53;91.57
70011;BME280;59543;37.950;-122.338;2023-01-10T10:38:32;100059.72;;;10.70;89.94
70011;BME280;59543;37.950;-122.338;2023-01-10T10:41:00;100077.91;;;10.76;87.27
70011;BME280;59543;37.950;-122.338;2023-01-10T10:43:33;100107.50;;;10.85;85.82
70011;BME280;59543;37.950;-122.338;2023-01-10T10:46:06;100120.47;;;10.89;84.33
70011;BME280;59543;37.950;-122.338;2023-01-10T10:51:52;100121.16;;;10.99;84.74
70011;BME280;59543;37.950;-122.338;2023-01-10T10:54:19;100084.66;;;11.05;83.30
70011;BME280;59543;37.950;-122.338;2023-01-10T10:56:45;100092.06;;;11.11;80.94
70011;BME280;59543;37.950;-122.338;2023-01-10T10:59:17;100092.72;;;11.21;80.42
70011;BME280;59543;37.950;-122.338;2023-01-10T11:01:45;100097.94;;;11.15;81.42
70011;BME280;59543;37.950;-122.338;2023-01-10T11:04:17;100116.78;;;11.23;81.52
70011;BME280;59543;37.950;-122.338;2023-01-10T11:06:45;100115.28;;;11.29;80.55
70011;BME280;59543;37.950;-122.338;2023-01-10T11:09:16;100110.53;;;11.31;80.97
70011;BME280;59543;37.950;-122.338;2023-01-10T11:11:50;100139.31;;;11.30;81.66
70011;BME280;59543;37.950;-122.338;2023-01-10T11:14:39;100136.47;;;11.32;81.94
70011;BME280;59543;37.950;-122.338;2023-01-10T11:17:21;100117.44;;;11.33;81.69
70011;BME280;59543;37.950;-122.338;2023-01-10T11:20:14;100102.47;;;11.31;81.56
70011;BME280;59543;37.950;-122.338;2023-01-10T11:22:48;100118.31;;;11.26;81.19
70011;BME280;59543;37.950;-122.338;2023-01-10T11:25:18;100120.63;;;11.37;80.43
70011;BME280;59543;37.950;-122.338;2023-01-10T11:27:56;100106.16;;;11.46;80.27
70011;BME280;59543;37.950;-122.338;2023-01-10T11:30:30;100115.41;;;11.52;79.77
70011;BME280;59543;37.950;-122.338;2023-01-10T11:33:05;100104.63;;;11.52;77.91
70011;BME280;59543;37.950;-122.338;2023-01-10T11:35:35;100101.78;;;11.45;79.17
70011;BME280;59543;37.950;-122.338;2023-01-10T11:38:03;100096.88;;;11.57;78.09
70011;BME280;59543;37.950;-122.338;2023-01-10T11:40:31;100091.84;;;11.54;79.06
70011;BME280;59543;37.950;-122.338;2023-01-10T11:42:59;100088.47;;;11.52;79.12
70011;BME280;59543;37.950;-122.338;2023-01-10T11:45:31;100095.72;;;11.43;79.48
70011;BME280;59543;37.950;-122.338;2023-01-10T11:48:08;100091.19;;;11.35;80.41
70011;BME280;59543;37.950;-122.338;2023-01-10T11:50:37;100091.00;;;11.37;81.22
70011;BME280;59543;37.950;-122.338;2023-01-10T11:53:20;100098.09;;;11.38;81.12
70011;BME280;59543;37.950;-122.338;2023-01-10T11:55:53;100082.59;;;11.40;80.65
70011;BME280;59543;37.950;-122.338;2023-01-10T11:58:19;100086.94;;;11.49;80.36
70011;BME280;59543;37.950;-122.338;2023-01-10T12:00:47;100089.16;;;11.45;81.89
70011;BME280;59543;37.950;-122.338;2023-01-10T12:03:22;100058.34;;;11.40;83.54
70011;BME280;59543;37.950;-122.338;2023-01-10T12:05:59;100053.34;;;11.29;84.00
70011;BME280;59543;37.950;-122.338;2023-01-10T12:08:33;100052.84;;;11.17;85.17
70011;BME280;59543;37.950;-122.338;2023-01-10T12:11:31;100073.38;;;11.10;85.39
70011;BME280;59543;37.950;-122.338;2023-01-10T12:13:59;100057.41;;;11.16;84.56
70011;BME280;59543;37.950;-122.338;2023-01-10T12:16:28;100048.81;;;11.21;85.08
70011;BME280;59543;37.950;-122.338;2023-01-10T12:18:59;100035.00;;;11.16;85.83
70011;BME280;59543;37.950;-122.338;2023-01-10T12:21:39;100042.41;;;11.22;85.64
70011;BME280;59543;37.950;-122.338;2023-01-10T12:24:25;100040.72;;;11.13;85.73
70011;BME280;59543;37.950;-122.338;2023-01-10T12:26:53;100043.06;;;11.24;86.78
70011;BME280;59543;37.950;-122.338;2023-01-10T12:29:24;100044.25;;;11.21;87.41
70011;BME280;59543;37.950;-122.338;2023-01-10T12:31:53;100063.63;;;11.17;87.53
70011;BME280;59543;37.950;-122.338;2023-01-10T12:34:43;100065.44;;;11.25;84.97
70011;BME280;59543;37.950;-122.338;2023-01-10T12:37:22;100066.47;;;11.32;83.97
70011;BME280;59543;37.950;-122.338;2023-01-10T12:40:22;100070.00;;;11.24;84.60
70011;BME280;59543;37.950;-122.338;2023-01-10T12:42:59;100068.00;;;11.26;84.40
70011;BME280;59543;37.950;-122.338;2023-01-10T12:45:51;100074.69;;;11.30;84.97
70011;BME280;59543;37.950;-122.338;2023-01-10T12:48:36;100084.47;;;11.31;83.98
70011;BME280;59543;37.950;-122.338;2023-01-10T12:51:13;100081.94;;;11.38;83.42
70011;BME280;59543;37.950;-122.338;2023-01-10T12:53:42;100089.00;;;11.39;83.30
70011;BME280;59543;37.950;-122.338;2023-01-10T12:56:12;100082.94;;;11.45;81.85
70011;BME280;59543;37.950;-122.338;2023-01-10T12:58:43;100087.97;;;11.48;81.56
70011;BME280;59543;37.950;-122.338;2023-01-10T13:01:15;100077.88;;;11.50;80.41
70011;BME280;59543;37.950;-122.338;2023-01-10T13:03:44;100071.97;;;11.55;80.43
70011;BME280;59543;37.950;-122.338;2023-01-10T13:06:26;100083.59;;;11.55;79.73
70011;BME280;59543;37.950;-122.338;2023-01-10T13:08:54;100087.63;;;11.59;80.20
70011;BME280;59543;37.950;-122.338;2023-01-10T13:11:24;100094.69;;;11.60;80.71
70011;BME280;59543;37.950;-122.338;2023-01-10T13:13:59;100094.69;;;11.68;78.91
70011;BME280;59543;37.950;-122.338;2023-01-10T13:21:41;100124.81;;;11.72;78.58
70011;BME280;59543;37.950;-122.338;2023-01-10T13:24:21;100130.19;;;11.72;78.22
70011;BME280;59543;37.950;-122.338;2023-01-10T13:26:58;100135.09;;;11.77;78.70
70011;BME280;59543;37.950;-122.338;2023-01-10T13:29:37;100148.56;;;11.68;80.13
70011;BME280;59543;37.950;-122.338;2023-01-10T13:32:26;100161.34;;;11.66;81.45
70011;BME280;59543;37.950;-122.338;2023-01-10T13:34:53;100148.91;;;11.65;82.22
70011;BME280;59543;37.950;-122.338;2023-01-10T13:37:29;100172.16;;;11.58;81.33
70011;BME280;59543;37.950;-122.338;2023-01-10T13:39:59;100166.25;;;11.55;81.74
70011;BME280;59543;37.950;-122.338;2023-01-10T13:42:29;100166.09;;;11.64;81.56
70011;BME280;59543;37.950;-122.338;2023-01-10T13:45:20;100167.06;;;11.63;81.67
70011;BME280;59543;37.950;-122.338;2023-01-10T13:53:39;100176.84;;;11.56;81.77
70011;BME280;59543;37.950;-122.338;2023-01-10T13:55:59;100197.38;;;11.65;81.32